sensor_id;sensor_type;location;lat;lon;timestamp;pressure;altitude;pressure_sealevel;temperature;humidity
68301;BME280;55146;47.468;18.806;2023-04-04T00:01:14;100305.28;;;3.84;53.69
68301;BME280;55146;47.468;18.806;2023-04-04T00:03:41;100301.56;;;3.78;54.17
68301;BME280;55146;47.468;18.806;2023-04-04T00:06:06;100301.87;;;3.70;54.06
68301;BME280;55146;47.468;18.806;2023-04-04T00:08:32;100303.84;;;3.63;53.55
68301;BME280;55146;47.468;18.806;2023-04-04T00:10:58;100309.94;;;3.58;53.87
68301;BME280;55146;47.468;18.806;2023-04-04T00:13:24;100305.63;;;3.51;54.57
68301;BME280;55146;47.468;18.806;2023-04-04T00:15:51;100312.38;;;3.42;54.63
68301;BME280;55146;47.468;18.806;2023-04-04T00:18:16;100300.72;;;3.35;54.05
68301;BME280;55146;47.468;18.806;2023-04-04T00:20:41;100311.91;;;3.27;54.05
68301;BME280;55146;47.468;18.806;2023-04-04T00:23:07;100310.66;;;3.22;54.19
68301;BME280;55146;47.468;18.806;2023-04-04T00:25:36;100314.19;;;2.98;53.85
68301;BME280;55146;47.468;18.806;2023-04-04T00:28:01;100318.78;;;2.98;54.72
68301;BME280;55146;47.468;18.806;2023-04-04T00:30:28;100323.38;;;2.97;54.74
68301;BME280;55146;47.468;18.806;2023-04-04T00:32:53;100321.34;;;2.93;54.15
68301;BME280;55146;47.468;18.806;2023-04-04T00:35:20;100323.66;;;2.89;54.25
68301;BME280;55146;47.468;18.806;2023-04-04T00:37:45;100323.25;;;2.85;53.79
68301;BME280;55146;47.468;18.806;2023-04-04T00:40:11;100318.31;;;2.76;54.66
68301;BME280;55146;47.468;18.806;2023-04-04T00:42:37;100327.50;;;2.75;54.79
68301;BME280;55146;47.468;18.806;2023-04-04T00:45:03;100322.06;;;2.75;55.14
68301;BME280;55146;47.468;18.806;2023-04-04T00:47:29;100333.81;;;2.69;55.58
68301;BME280;55146;47.468;18.806;2023-04-04T00:49:55;100333.84;;;2.62;55.07
68301;BME280;55146;47.468;18.806;2023-04-04T00:52:21;100334.06;;;2.61;54.43
68301;BME280;55146;47.468;18.806;2023-04-04T00:54:47;100325.31;;;2.59;55.15
68301;BME280;55146;47.468;18.806;2023-04-04T00:57:13;100333.50;;;2.52;55.78
68301;BME280;55146;47.468;18.806;2023-04-04T00:59:39;100328.91;;;2.53;56.16
68301;BME280;55146;47.468;18.806;2023-04-04T01:02:04;100326.38;;;2.51;56.70
68301;BME280;55146;47.468;18.806;2023-04-04T01:04:30;100322.00;;;2.50;56.82
68301;BME280;55146;47.468;18.806;2023-04-04T01:06:56;100320.34;;;2.42;57.74
68301;BME280;55146;47.468;18.806;2023-04-04T01:09:22;100303.69;;;2.39;58.37
68301;BME280;55146;47.468;18.806;2023-04-04T01:11:47;100307.22;;;2.39;58.19
68301;BME280;55146;47.468;18.806;2023-04-04T01:14:13;100301.63;;;2.34;57.69
68301;BME280;55146;47.468;18.806;2023-04-04T01:16:38;100292.44;;;2.29;58.30
68301;BME280;55146;47.468;18.806;2023-04-04T01:19:08;100294.94;;;2.30;58.02
68301;BME280;55146;47.468;18.806;2023-04-04T01:21:36;100294.75;;;2.32;58.75
68301;BME280;55146;47.468;18.806;2023-04-04T01:24:02;100281.81;;;2.27;58.29
68301;BME280;55146;47.468;18.806;2023-04-04T01:26:28;100288.91;;;2.28;58.09
68301;BME280;55146;47.468;18.806;2023-04-04T01:28:55;100279.41;;;2.06;58.47
68301;BME280;55146;47.468;18.806;2023-04-04T01:31:25;100275.19;;;2.10;59.20
68301;BME280;55146;47.468;18.806;2023-04-04T01:34:09;100267.06;;;2.10;59.44
68301;BME280;55146;47.468;18.806;2023-04-04T01:36:46;100268.34;;;2.08;59.55
68301;BME280;55146;47.468;18.806;2023-04-04T01:39:34;100268.78;;;1.98;59.47
68301;BME280;55146;47.468;18.806;2023-04-04T01:42:02;100267.00;;;1.79;59.98
68301;BME280;55146;47.468;18.806;2023-04-04T01:44:27;100252.97;;;1.82;60.22
68301;BME280;55146;47.468;18.806;2023-04-04T01:46:53;100251.13;;;1.76;60.53
68301;BME280;55146;47.468;18.806;2023-04-04T01:49:22;100248.03;;;1.72;60.61
68301;BME280;55146;47.468;18.806;2023-04-04T01:51:49;100247.81;;;1.60;60.53
68301;BME280;55146;47.468;18.806;2023-04-04T01:54:15;100232.19;;;1.62;60.52
68301;BME280;55146;47.468;18.806;2023-04-04T01:56:43;100236.97;;;1.67;60.61
68301;BME280;55146;47.468;18.806;2023-04-04T01:59:09;100225.50;;;1.65;60.62
68301;BME280;55146;47.468;18.806;2023-04-04T02:01:34;100234.03;;;1.69;60.88
68301;BME280;55146;47.468;18.806;2023-04-04T02:04:00;100225.50;;;1.72;60.97
68301;BME280;55146;47.468;18.806;2023-04-04T02:06:26;100226.09;;;1.74;60.74
68301;BME280;55146;47.468;18.806;2023-04-04T02:08:51;100219.87;;;1.67;60.05
68301;BME280;55146;47.468;18.806;2023-04-04T02:11:17;100222.59;;;1.67;59.99
68301;BME280;55146;47.468;18.806;2023-04-04T02:13:42;100219.66;;;1.68;60.37
68301;BME280;55146;47.468;18.806;2023-04-04T02:16:09;100220.28;;;1.70;60.27
68301;BME280;55146;47.468;18.806;2023-04-04T02:18:34;100211.09;;;1.71;60.03
68301;BME280;55146;47.468;18.806;2023-04-04T02:21:01;100203.63;;;1.67;60.05
68301;BME280;55146;47.468;18.806;2023-04-04T02:23:26;100198.41;;;1.65;59.80
68301;BME280;55146;47.468;18.806;2023-04-04T02:25:51;100188.16;;;1.67;59.75
68301;BME280;55146;47.468;18.806;2023-04-04T02:28:17;100194.66;;;1.66;59.58
68301;BME280;55146;47.468;18.806;2023-04-04T02:30:43;100192.53;;;1.68;60.26
68301;BME280;55146;47.468;18.806;2023-04-04T02:33:08;100188.56;;;1.71;60.03
68301;BME280;55146;47.468;18.806;2023-04-04T02:35:33;100185.03;;;1.70;59.74
68301;BME280;55146;47.468;18.806;2023-04-04T02:37:59;100175.69;;;1.66;59.73
68301;BME280;55146;47.468;18.806;2023-04-04T02:40:24;100174.03;;;1.58;60.30
68301;BME280;55146;47.468;18.806;2023-04-04T02:42:50;100176.31;;;1.55;59.99
68301;BME280;55146;47.468;18.806;2023-04-04T02:45:15;100174.47;;;1.49;60.56
68301;BME280;55146;47.468;18.806;2023-04-04T02:47:41;100177.41;;;1.47;59.88
68301;BME280;55146;47.468;18.806;2023-04-04T02:50:08;100179.91;;;1.42;60.08
68301;BME280;55146;47.468;18.806;2023-04-04T02:52:34;100177.44;;;1.41;59.78
68301;BME280;55146;47.468;18.806;2023-04-04T02:54:59;100178.66;;;1.38;60.33
68301;BME280;55146;47.468;18.806;2023-04-04T02:57:24;100186.41;;;1.35;59.96
68301;BME280;55146;47.468;18.806;2023-04-04T02:59:50;100187.44;;;1.34;59.70
68301;BME280;55146;47.468;18.806;2023-04-04T03:02:34;100179.53;;;1.32;59.48
68301;BME280;55146;47.468;18.806;2023-04-04T03:05:00;100188.28;;;1.28;59.86
68301;BME280;55146;47.468;18.806;2023-04-04T03:07:25;100189.13;;;1.28;60.61
68301;BME280;55146;47.468;18.806;2023-04-04T03:09:50;100188.28;;;1.34;60.69
68301;BME280;55146;47.468;18.806;2023-04-04T03:12:19;100191.19;;;1.33;60.85
68301;BME280;55146;47.468;18.806;2023-04-04T03:14:44;100199.53;;;1.31;60.84
68301;BME280;55146;47.468;18.806;2023-04-04T03:17:10;100203.91;;;1.32;60.81
68301;BME280;55146;47.468;18.806;2023-04-04T03:19:39;100203.06;;;1.38;60.38
68301;BME280;55146;47.468;18.806;2023-04-04T03:22:04;100210.78;;;1.35;60.24
68301;BME280;55146;47.468;18.806;2023-04-04T03:24:30;100206.22;;;1.35;60.03
68301;BME280;55146;47.468;18.806;2023-04-04T03:26:55;100206.41;;;1.34;61.18
68301;BME280;55146;47.468;18.806;2023-04-04T03:29:20;100210.34;;;1.38;60.99
68301;BME280;55146;47.468;18.806;2023-04-04T03:31:46;100209.53;;;1.37;61.31
68301;BME280;55146;47.468;18.806;2023-04-04T03:34:11;100208.28;;;1.33;61.19
68301;BME280;55146;47.468;18.806;2023-04-04T03:36:37;100207.66;;;1.31;61.15
68301;BME280;55146;47.468;18.806;2023-04-04T03:39:02;100204.94;;;1.31;61.57
68301;BME280;55146;47.468;18.806;2023-04-04T03:41:27;100216.22;;;1.28;62.19
68301;BME280;55146;47.468;18.806;2023-04-04T03:43:53;100217.66;;;1.24;62.76
68301;BME280;55146;47.468;18.806;2023-04-04T03:46:18;100218.31;;;1.19;62.73
68301;BME280;55146;47.468;18.806;2023-04-04T03:48:43;100213.72;;;1.20;62.71
68301;BME280;55146;47.468;18.806;2023-04-04T03:51:09;100225.41;;;1.20;62.41
68301;BME280;55146;47.468;18.806;2023-04-04T03:53:35;100219.34;;;1.18;62.61
68301;BME280;55146;47.468;18.806;2023-04-04T03:56:00;100217.47;;;1.19;62.79
68301;BME280;55146;47.468;18.806;2023-04-04T03:58:27;100217.28;;;1.14;62.88
68301;BME280;55146;47.468;18.806;2023-04-04T04:00:53;100211.66;;;1.09;62.84
68301;BME280;55146;47.468;18.806;2023-04-04T04:03:19;100218.31;;;1.06;62.00
68301;BME280;55146;47.468;18.806;2023-04-04T04:05:45;100219.16;;;1.07;61.62
68301;BME280;55146;47.468;18.806;2023-04-04T04:08:11;100221.66;;;1.08;61.85
68301;BME280;55146;47.468;18.806;2023-04-04T04:10:37;100221.88;;;1.07;61.78
68301;BME280;55146;47.468;18.806;2023-04-04T04:13:02;100217.47;;;1.06;61.53
68301;BME280;55146;47.468;18.806;2023-04-04T04:15:28;100217.72;;;1.04;61.97
68301;BME280;55146;47.468;18.806;2023-04-04T04:17:53;100219.78;;;1.02;61.75
68301;BME280;55146;47.468;18.806;2023-04-04T04:20:19;100222.91;;;0.99;62.09
68301;BME280;55146;47.468;18.806;2023-04-04T04:22:48;100211.28;;;0.86;62.83
68301;BME280;55146;47.468;18.806;2023-04-04T04:25:14;100212.91;;;0.87;63.38
68301;BME280;55146;47.468;18.806;2023-04-04T04:27:40;100218.31;;;0.87;63.62
68301;BME280;55146;47.468;18.806;2023-04-04T04:30:06;100215.00;;;0.85;63.11
68301;BME280;55146;47.468;18.806;2023-04-04T04:32:31;100207.53;;;0.80;63.33
68301;BME280;55146;47.468;18.806;2023-04-04T04:34:57;100209.78;;;0.76;63.24
68301;BME280;55146;47.468;18.806;2023-04-04T04:37:22;100206.87;;;0.71;62.83
68301;BME280;55146;47.468;18.806;2023-04-04T04:39:50;100208.56;;;0.66;63.24
68301;BME280;55146;47.468;18.806;2023-04-04T04:42:16;100211.47;;;0.64;63.74
68301;BME280;55146;47.468;18.806;2023-04-04T04:44:42;100213.31;;;0.64;63.91
68301;BME280;55146;47.468;18.806;2023-04-04T04:47:07;100217.50;;;0.66;63.40
68301;BME280;55146;47.468;18.806;2023-04-04T04:49:32;100215.84;;;0.65;63.40
68301;BME280;55146;47.468;18.806;2023-04-04T04:51:58;100207.50;;;0.67;63.38
68301;BME280;55146;47.468;18.806;2023-04-04T04:54:24;100211.25;;;0.66;63.36
68301;BME280;55146;47.468;18.806;2023-04-04T04:56:49;100206.87;;;0.65;63.14
68301;BME280;55146;47.468;18.806;2023-04-04T04:59:15;100205.66;;;0.67;63.62
68301;BME280;55146;47.468;18.806;2023-04-04T05:01:40;100207.09;;;0.70;64.39
68301;BME280;55146;47.468;18.806;2023-04-04T05:04:06;100198.97;;;0.76;64.84
68301;BME280;55146;47.468;18.806;2023-04-04T05:06:31;100206.25;;;0.76;64.42
68301;BME280;55146;47.468;18.806;2023-04-04T05:08:56;100212.94;;;0.80;64.30
68301;BME280;55146;47.468;18.806;2023-04-04T05:11:22;100216.69;;;0.86;64.58
68301;BME280;55146;47.468;18.806;2023-04-04T05:13:47;100212.50;;;0.90;65.04
68301;BME280;55146;47.468;18.806;2023-04-04T05:16:13;100213.13;;;0.92;64.67
68301;BME280;55146;47.468;18.806;2023-04-04T05:18:38;100206.66;;;0.93;65.46
68301;BME280;55146;47.468;18.806;2023-04-04T05:21:03;100213.13;;;0.98;65.64
68301;BME280;55146;47.468;18.806;2023-04-04T05:23:29;100205.84;;;0.99;65.89
68301;BME280;55146;47.468;18.806;2023-04-04T05:25:54;100210.00;;;0.95;66.14
68301;BME280;55146;47.468;18.806;2023-04-04T05:28:20;100207.94;;;0.97;65.75
68301;BME280;55146;47.468;18.806;2023-04-04T05:30:45;100210.00;;;1.01;65.94
68301;BME280;55146;47.468;18.806;2023-04-04T05:33:11;100211.66;;;1.02;65.98
68301;BME280;55146;47.468;18.806;2023-04-04T05:35:37;100217.50;;;0.99;65.63
68301;BME280;55146;47.468;18.806;2023-04-04T05:38:02;100219.59;;;1.04;66.00
68301;BME280;55146;47.468;18.806;2023-04-04T05:40:27;100218.12;;;1.08;66.17
68301;BME280;55146;47.468;18.806;2023-04-04T05:42:54;100221.84;;;1.13;66.57
68301;BME280;55146;47.468;18.806;2023-04-04T05:45:20;100219.59;;;1.10;66.51
68301;BME280;55146;47.468;18.806;2023-04-04T05:47:45;100223.94;;;1.11;66.07
68301;BME280;55146;47.468;18.806;2023-04-04T05:50:10;100229.78;;;1.08;66.38
68301;BME280;55146;47.468;18.806;2023-04-04T05:52:36;100232.50;;;1.15;66.73
68301;BME280;55146;47.468;18.806;2023-04-04T05:55:01;100231.84;;;1.26;66.30
68301;BME280;55146;47.468;18.806;2023-04-04T05:57:26;100225.59;;;1.32;66.44
68301;BME280;55146;47.468;18.806;2023-04-04T05:59:52;100229.12;;;1.33;66.00
68301;BME280;55146;47.468;18.806;2023-04-04T06:02:17;100233.91;;;1.31;66.46
68301;BME280;55146;47.468;18.806;2023-04-04T06:04:43;100222.66;;;1.40;66.14
68301;BME280;55146;47.468;18.806;2023-04-04T06:07:09;100234.53;;;1.46;66.57
68301;BME280;55146;47.468;18.806;2023-04-04T06:09:35;100233.25;;;1.55;65.90
68301;BME280;55146;47.468;18.806;2023-04-04T06:12:01;100233.69;;;1.52;65.50
68301;BME280;55146;47.468;18.806;2023-04-04T06:14:28;100237.78;;;1.68;65.07
68301;BME280;55146;47.468;18.806;2023-04-04T06:16:54;100232.34;;;1.81;64.79
68301;BME280;55146;47.468;18.806;2023-04-04T06:19:19;100226.87;;;1.94;64.65
68301;BME280;55146;47.468;18.806;2023-04-04T06:21:44;100227.63;;;2.08;63.00
68301;BME280;55146;47.468;18.806;2023-04-04T06:24:10;100229.97;;;2.35;63.00
68301;BME280;55146;47.468;18.806;2023-04-04T06:26:35;100224.44;;;2.55;61.91
68301;BME280;55146;47.468;18.806;2023-04-04T06:29:01;100226.63;;;2.71;60.23
68301;BME280;55146;47.468;18.806;2023-04-04T06:31:27;100225.38;;;2.99;59.36
68301;BME280;55146;47.468;18.806;2023-04-04T06:33:53;100217.81;;;3.25;59.68
68301;BME280;55146;47.468;18.806;2023-04-04T06:36:18;100216.94;;;3.50;57.97
68301;BME280;55146;47.468;18.806;2023-04-04T06:38:43;100210.37;;;3.57;56.94
68301;BME280;55146;47.468;18.806;2023-04-04T06:41:09;100193.50;;;3.85;56.73
68301;BME280;55146;47.468;18.806;2023-04-04T06:43:35;100181.41;;;3.99;55.32
68301;BME280;55146;47.468;18.806;2023-04-04T06:46:00;100170.25;;;4.19;56.06
68301;BME280;55146;47.468;18.806;2023-04-04T06:48:25;100166.97;;;4.29;55.15
68301;BME280;55146;47.468;18.806;2023-04-04T06:50:50;100181.56;;;4.46;54.96
68301;BME280;55146;47.468;18.806;2023-04-04T06:53:16;100177.47;;;4.55;55.31
68301;BME280;55146;47.468;18.806;2023-04-04T06:55:41;100179.69;;;4.46;53.72
68301;BME280;55146;47.468;18.806;2023-04-04T06:58:07;100175.38;;;4.69;54.45
68301;BME280;55146;47.468;18.806;2023-04-04T07:00:32;100175.84;;;4.77;53.51
68301;BME280;55146;47.468;18.806;2023-04-04T07:02:58;100173.59;;;4.74;53.33
68301;BME280;55146;47.468;18.806;2023-04-04T07:05:24;100181.19;;;4.84;53.90
68301;BME280;55146;47.468;18.806;2023-04-04T07:07:55;100176.78;;;4.83;53.79
68301;BME280;55146;47.468;18.806;2023-04-04T07:10:24;100179.31;;;4.96;53.59
68301;BME280;55146;47.468;18.806;2023-04-04T07:12:50;100177.19;;;4.86;52.89
68301;BME280;55146;47.468;18.806;2023-04-04T07:15:15;100174.91;;;4.95;52.79
68301;BME280;55146;47.468;18.806;2023-04-04T07:17:41;100183.09;;;5.07;52.90
68301;BME280;55146;47.468;18.806;2023-04-04T07:20:07;100187.72;;;5.06;53.05
68301;BME280;55146;47.468;18.806;2023-04-04T07:22:36;100193.09;;;5.24;53.62
68301;BME280;55146;47.468;18.806;2023-04-04T07:25:03;100194.97;;;5.47;51.99
68301;BME280;55146;47.468;18.806;2023-04-04T07:27:28;100203.72;;;5.26;50.80
68301;BME280;55146;47.468;18.806;2023-04-04T07:29:53;100206.00;;;5.06;50.41
68301;BME280;55146;47.468;18.806;2023-04-04T07:32:19;100202.19;;;5.07;51.34
68301;BME280;55146;47.468;18.806;2023-04-04T07:34:44;100205.50;;;5.09;51.91
68301;BME280;55146;47.468;18.806;2023-04-04T07:37:11;100205.28;;;5.10;52.42
68301;BME280;55146;47.468;18.806;2023-04-04T07:39:36;100208.47;;;5.07;51.20
68301;BME280;55146;47.468;18.806;2023-04-04T07:42:02;100206.44;;;5.03;51.92
68301;BME280;55146;47.468;18.806;2023-04-04T07:44:27;100210.72;;;5.10;51.80
68301;BME280;55146;47.468;18.806;2023-04-04T07:46:53;100201.59;;;5.05;52.28
68301;BME280;55146;47.468;18.806;2023-04-04T07:49:18;100198.38;;;5.19;52.81
68301;BME280;55146;47.468;18.806;2023-04-04T07:51:43;100198.03;;;5.27;53.32
68301;BME280;55146;47.468;18.806;2023-04-04T07:54:09;100204.00;;;5.36;52.89
68301;BME280;55146;47.468;18.806;2023-04-04T07:56:34;100193.50;;;5.56;53.20
68301;BME280;55146;47.468;18.806;2023-04-04T07:59:00;100195.38;;;5.91;53.61
68301;BME280;55146;47.468;18.806;2023-04-04T08:01:26;100200.00;;;6.30;50.07
68301;BME280;55146;47.468;18.806;2023-04-04T08:03:51;100202.50;;;6.77;50.84
68301;BME280;55146;47.468;18.806;2023-04-04T08:06:17;100200.28;;;7.07;49.18
68301;BME280;55146;47.468;18.806;2023-04-04T08:08:42;100189.25;;;7.02;48.24
68301;BME280;55146;47.468;18.806;2023-04-04T08:11:09;100190.34;;;7.01;45.85
68301;BME280;55146;47.468;18.806;2023-04-04T08:13:34;100187.56;;;7.35;48.47
68301;BME280;55146;47.468;18.806;2023-04-04T08:15:59;100186.72;;;7.51;46.91
68301;BME280;55146;47.468;18.806;2023-04-04T08:18:25;100185.00;;;7.45;47.15
68301;BME280;55146;47.468;18.806;2023-04-04T08:20:51;100185.19;;;7.60;45.92
68301;BME280;55146;47.468;18.806;2023-04-04T08:23:16;100176.25;;;7.48;45.79
68301;BME280;55146;47.468;18.806;2023-04-04T08:25:42;100192.69;;;7.48;45.33
68301;BME280;55146;47.468;18.806;2023-04-04T08:28:09;100197.44;;;7.74;45.64
68301;BME280;55146;47.468;18.806;2023-04-04T08:30:34;100203.44;;;7.93;44.73
68301;BME280;55146;47.468;18.806;2023-04-04T08:32:59;100199.38;;;7.95;45.27
68301;BME280;55146;47.468;18.806;2023-04-04T08:35:25;100179.78;;;8.08;44.42
68301;BME280;55146;47.468;18.806;2023-04-04T08:37:50;100184.31;;;7.98;44.36
68301;BME280;55146;47.468;18.806;2023-04-04T08:40:16;100179.16;;;7.80;43.87
68301;BME280;55146;47.468;18.806;2023-04-04T08:42:42;100176.63;;;7.95;45.03
68301;BME280;55146;47.468;18.806;2023-04-04T08:45:11;100181.38;;;8.04;43.54
68301;BME280;55146;47.468;18.806;2023-04-04T08:47:40;100179.84;;;8.35;44.27
68301;BME280;55146;47.468;18.806;2023-04-04T08:50:07;100176.56;;;8.60;43.18
68301;BME280;55146;47.468;18.806;2023-04-04T08:52:33;100166.41;;;8.34;42.28
68301;BME280;55146;47.468;18.806;2023-04-04T08:55:04;100165.87;;;8.15;43.84
68301;BME280;55146;47.468;18.806;2023-04-04T08:57:29;100163.72;;;8.17;43.71
68301;BME280;55146;47.468;18.806;2023-04-04T08:59:55;100164.31;;;8.19;43.33
68301;BME280;55146;47.468;18.806;2023-04-04T09:02:25;100159.06;;;8.39;42.86
68301;BME280;55146;47.468;18.806;2023-04-04T09:04:52;100150.34;;;8.42;41.93
68301;BME280;55146;47.468;18.806;2023-04-04T09:07:19;100153.38;;;8.46;43.04
68301;BME280;55146;47.468;18.806;2023-04-04T09:09:45;100155.34;;;8.29;42.54
68301;BME280;55146;47.468;18.806;2023-04-04T09:12:12;100141.59;;;8.45;42.72
68301;BME280;55146;47.468;18.806;2023-04-04T09:14:39;100136.13;;;8.77;42.61
68301;BME280;55146;47.468;18.806;2023-04-04T09:17:05;100136.53;;;8.96;40.78
68301;BME280;55146;47.468;18.806;2023-04-04T09:19:32;100146.75;;;9.01;43.32
68301;BME280;55146;47.468;18.806;2023-04-04T09:21:58;100136.03;;;9.41;41.49
68301;BME280;55146;47.468;18.806;2023-04-04T09:24:23;100138.50;;;9.43;41.84
68301;BME280;55146;47.468;18.806;2023-04-04T09:26:51;100138.06;;;9.61;41.78
68301;BME280;55146;47.468;18.806;2023-04-04T09:29:17;100137.94;;;9.41;39.67
68301;BME280;55146;47.468;18.806;2023-04-04T09:31:43;100131.09;;;9.43;41.06
68301;BME280;55146;47.468;18.806;2023-04-04T09:34:12;100135.59;;;9.17;41.61
68301;BME280;55146;47.468;18.806;2023-04-04T09:36:39;100146.88;;;9.21;42.09
68301;BME280;55146;47.468;18.806;2023-04-04T09:39:05;100145.66;;;9.44;41.99
68301;BME280;55146;47.468;18.806;2023-04-04T09:41:31;100142.59;;;9.40;40.99
68301;BME280;55146;47.468;18.806;2023-04-04T09:43:56;100134.38;;;9.40;40.81
68301;BME280;55146;47.468;18.806;2023-04-04T09:46:22;100133.50;;;9.34;40.79
68301;BME280;55146;47.468;18.806;2023-04-04T09:48:49;100130.50;;;9.36;41.53
68301;BME280;55146;47.468;18.806;2023-04-04T09:51:15;100128.94;;;9.08;42.10
68301;BME280;55146;47.468;18.806;2023-04-04T09:53:41;100120.84;;;9.28;40.89
68301;BME280;55146;47.468;18.806;2023-04-04T09:56:06;100124.41;;;9.24;41.40
68301;BME280;55146;47.468;18.806;2023-04-04T09:58:32;100113.25;;;9.46;41.18
68301;BME280;55146;47.468;18.806;2023-04-04T10:01:01;100106.16;;;9.50;40.94
68301;BME280;55146;47.468;18.806;2023-04-04T10:03:28;100105.59;;;9.48;40.22
68301;BME280;55146;47.468;18.806;2023-04-04T10:06:03;100119.97;;;9.70;40.42
68301;BME280;55146;47.468;18.806;2023-04-04T10:08:29;100118.03;;;9.70;39.13
68301;BME280;55146;47.468;18.806;2023-04-04T10:11:03;100113.94;;;9.73;40.22
68301;BME280;55146;47.468;18.806;2023-04-04T10:13:31;100115.53;;;9.59;40.03
68301;BME280;55146;47.468;18.806;2023-04-04T10:15:58;100120.53;;;9.72;40.23
68301;BME280;55146;47.468;18.806;2023-04-04T10:18:27;100121.63;;;9.71;39.61
68301;BME280;55146;47.468;18.806;2023-04-04T10:20:56;100106.31;;;9.85;40.70
68301;BME280;55146;47.468;18.806;2023-04-04T10:23:23;100103.81;;;9.89;40.42
68301;BME280;55146;47.468;18.806;2023-04-04T10:25:51;100101.13;;;9.99;39.02
68301;BME280;55146;47.468;18.806;2023-04-04T10:28:17;100100.28;;;9.93;38.94
68301;BME280;55146;47.468;18.806;2023-04-04T10:30:48;100096.44;;;9.94;37.75
68301;BME280;55146;47.468;18.806;2023-04-04T10:33:21;100095.28;;;9.75;38.21
68301;BME280;55146;47.468;18.806;2023-04-04T10:35:55;100098.28;;;9.68;38.92
68301;BME280;55146;47.468;18.806;2023-04-04T10:38:26;100086.75;;;9.71;38.29
68301;BME280;55146;47.468;18.806;2023-04-04T10:40:55;100083.72;;;9.68;39.72
68301;BME280;55146;47.468;18.806;2023-04-04T10:43:24;100085.06;;;9.65;39.57
68301;BME280;55146;47.468;18.806;2023-04-04T10:45:51;100085.66;;;9.72;39.52
68301;BME280;55146;47.468;18.806;2023-04-04T10:48:17;100097.56;;;9.98;39.69
68301;BME280;55146;47.468;18.806;2023-04-04T10:50:43;100084.44;;;10.26;39.69
68301;BME280;55146;47.468;18.806;2023-04-04T10:53:09;100087.50;;;10.44;39.30
68301;BME280;55146;47.468;18.806;2023-04-04T10:55:34;100094.09;;;10.69;37.92
68301;BME280;55146;47.468;18.806;2023-04-04T10:58:01;100075.94;;;10.98;37.84
68301;BME280;55146;47.468;18.806;2023-04-04T11:00:27;100076.97;;;11.17;38.85
68301;BME280;55146;47.468;18.806;2023-04-04T11:03:00;100081.16;;;11.05;38.37
68301;BME280;55146;47.468;18.806;2023-04-04T11:05:36;100083.59;;;11.21;37.69
68301;BME280;55146;47.468;18.806;2023-04-04T11:08:07;100086.09;;;11.03;37.18
68301;BME280;55146;47.468;18.806;2023-04-04T11:10:38;100085.00;;;10.99;36.59
68301;BME280;55146;47.468;18.806;2023-04-04T11:13:15;100084.19;;;10.93;37.66
68301;BME280;55146;47.468;18.806;2023-04-04T11:15:50;100086.12;;;10.98;37.89
68301;BME280;55146;47.468;18.806;2023-04-04T11:18:18;100083.34;;;11.08;36.17
68301;BME280;55146;47.468;18.806;2023-04-04T11:20:46;100076.22;;;10.97;36.73
68301;BME280;55146;47.468;18.806;2023-04-04T11:25:54;100069.88;;;10.96;38.72
68301;BME280;55146;47.468;18.806;2023-04-04T11:34:04;100069.31;;;10.94;36.66
68301;BME280;55146;47.468;18.806;2023-04-04T11:39:12;100056.09;;;11.16;38.14
68301;BME280;55146;47.468;18.806;2023-04-04T11:44:17;100050.09;;;11.73;36.96
68301;BME280;55146;47.468;18.806;2023-04-04T11:46:44;100045.84;;;11.96;37.47
68301;BME280;55146;47.468;18.806;2023-04-04T11:49:12;100052.62;;;12.14;36.61
68301;BME280;55146;47.468;18.806;2023-04-04T11:51:38;100042.84;;;11.88;35.29
68301;BME280;55146;47.468;18.806;2023-04-04T11:54:12;100047.97;;;12.09;35.96
68301;BME280;55146;47.468;18.806;2023-04-04T11:56:41;100045.28;;;12.38;35.40
68301;BME280;55146;47.468;18.806;2023-04-04T11:59:06;100051.00;;;12.47;34.43
68301;BME280;55146;47.468;18.806;2023-04-04T12:01:32;100033.44;;;12.67;36.66
68301;BME280;55146;47.468;18.806;2023-04-04T12:03:58;100037.34;;;12.32;32.45
68301;BME280;55146;47.468;18.806;2023-04-04T12:06:28;100035.34;;;12.37;33.87
68301;BME280;55146;47.468;18.806;2023-04-04T12:08:53;100040.37;;;12.30;31.78
68301;BME280;55146;47.468;18.806;2023-04-04T12:11:19;100026.63;;;12.59;34.36
68301;BME280;55146;47.468;18.806;2023-04-04T12:13:49;100015.09;;;12.52;33.73
68301;BME280;55146;47.468;18.806;2023-04-04T12:16:17;100012.53;;;12.61;35.08
68301;BME280;55146;47.468;18.806;2023-04-04T12:18:44;100004.34;;;12.50;33.81
68301;BME280;55146;47.468;18.806;2023-04-04T12:21:10;100004.25;;;12.32;34.29
68301;BME280;55146;47.468;18.806;2023-04-04T12:23:36;99999.59;;;12.22;34.72
68301;BME280;55146;47.468;18.806;2023-04-04T12:26:02;100000.16;;;12.24;33.13
68301;BME280;55146;47.468;18.806;2023-04-04T12:28:30;100007.03;;;12.27;32.71
68301;BME280;55146;47.468;18.806;2023-04-04T12:30:57;100003.88;;;12.43;33.84
68301;BME280;55146;47.468;18.806;2023-04-04T12:33:30;99992.06;;;12.67;34.82
68301;BME280;55146;47.468;18.806;2023-04-04T12:35:58;99994.69;;;12.82;33.40
68301;BME280;55146;47.468;18.806;2023-04-04T12:38:24;99990.56;;;12.50;32.80
68301;BME280;55146;47.468;18.806;2023-04-04T12:40:51;99990.84;;;12.49;32.94
68301;BME280;55146;47.468;18.806;2023-04-04T12:43:16;99997.41;;;12.53;34.14
68301;BME280;55146;47.468;18.806;2023-04-04T12:45:43;99985.59;;;12.47;33.58
68301;BME280;55146;47.468;18.806;2023-04-04T12:48:10;99985.03;;;12.22;32.59
68301;BME280;55146;47.468;18.806;2023-04-04T12:50:57;99986.94;;;12.21;35.46
68301;BME280;55146;47.468;18.806;2023-04-04T12:53:27;99987.41;;;12.28;33.42
68301;BME280;55146;47.468;18.806;2023-04-04T12:55:54;99971.84;;;12.13;34.75
68301;BME280;55146;47.468;18.806;2023-04-04T12:58:22;99977.91;;;12.15;34.06